sensor_id;sensor_type;location;lat;lon;timestamp;P1;durP1;ratioP1;P2;durP2;ratioP2
16015;SDS011;8112;53.592;10.184;2023-03-23T00:03:11;8.40;;;5.70;;
16015;SDS011;8112;53.592;10.184;2023-03-23T00:08:13;6.03;;;5.27;;
16015;SDS011;8112;53.592;10.184;2023-03-23T00:13:15;6.40;;;5.37;;
16015;SDS011;8112;53.592;10.184;2023-03-23T00:18:21;8.60;;;6.00;;
16015;SDS011;8112;53.592;10.184;2023-03-23T00:23:23;6.13;;;5.53;;
16015;SDS011;8112;53.592;10.184;2023-03-23T00:28:26;10.47;;;6.57;;
16015;SDS011;8112;53.592;10.184;2023-03-23T00:33:30;8.53;;;6.07;;
16015;SDS011;8112;53.592;10.184;2023-03-23T00:38:38;9.97;;;6.43;;
16015;SDS011;8112;53.592;10.184;2023-03-23T00:43:42;10.10;;;7.83;;
16015;SDS011;8112;53.592;10.184;2023-03-23T00:48:45;11.83;;;8.13;;
16015;SDS011;8112;53.592;10.184;2023-03-23T00:53:47;9.07;;;7.37;;
16015;SDS011;8112;53.592;10.184;2023-03-23T00:58:49;14.27;;;9.43;;
16015;SDS011;8112;53.592;10.184;2023-03-23T01:03:53;14.40;;;9.40;;
16015;SDS011;8112;53.592;10.184;2023-03-23T01:09:00;10.40;;;8.30;;
16015;SDS011;8112;53.592;10.184;2023-03-23T01:14:03;14.27;;;9.97;;
16015;SDS011;8112;53.592;10.184;2023-03-23T01:19:07;12.13;;;10.13;;
16015;SDS011;8112;53.592;10.184;2023-03-23T01:24:10;14.33;;;10.57;;
16015;SDS011;8112;53.592;10.184;2023-03-23T01:29:11;12.87;;;10.10;;
16015;SDS011;8112;53.592;10.184;2023-03-23T01:34:22;11.90;;;10.10;;
16015;SDS011;8112;53.592;10.184;2023-03-23T01:39:23;13.73;;;9.60;;
16015;SDS011;8112;53.592;10.184;2023-03-23T01:50:02;13.47;;;9.80;;
16015;SDS011;8112;53.592;10.184;2023-03-23T01:55:04;12.40;;;10.17;;
16015;SDS011;8112;53.592;10.184;2023-03-23T02:00:07;14.03;;;10.80;;
16015;SDS011;8112;53.592;10.184;2023-03-23T02:05:20;13.43;;;10.40;;
16015;SDS011;8112;53.592;10.184;2023-03-23T02:10:28;12.20;;;9.70;;
16015;SDS011;8112;53.592;10.184;2023-03-23T02:15:32;12.53;;;9.93;;
16015;SDS011;8112;53.592;10.184;2023-03-23T02:20:51;11.50;;;9.57;;
16015;SDS011;8112;53.592;10.184;2023-03-23T02:26:18;12.00;;;9.90;;
16015;SDS011;8112;53.592;10.184;2023-03-23T02:31:35;12.60;;;10.20;;
16015;SDS011;8112;53.592;10.184;2023-03-23T02:36:49;12.77;;;11.43;;
16015;SDS011;8112;53.592;10.184;2023-03-23T02:41:58;13.43;;;10.27;;
16015;SDS011;8112;53.592;10.184;2023-03-23T02:47:06;12.70;;;10.30;;
16015;SDS011;8112;53.592;10.184;2023-03-23T02:52:14;12.70;;;10.00;;
16015;SDS011;8112;53.592;10.184;2023-03-23T02:57:22;13.50;;;10.33;;
16015;SDS011;8112;53.592;10.184;2023-03-23T03:02:28;11.43;;;9.90;;
16015;SDS011;8112;53.592;10.184;2023-03-23T03:07:36;14.20;;;10.53;;
16015;SDS011;8112;53.592;10.184;2023-03-23T03:12:54;12.67;;;10.37;;
16015;SDS011;8112;53.592;10.184;2023-03-23T03:18:02;12.87;;;10.53;;
16015;SDS011;8112;53.592;10.184;2023-03-23T03:23:13;12.63;;;9.87;;
16015;SDS011;8112;53.592;10.184;2023-03-23T03:28:20;10.80;;;9.33;;
16015;SDS011;8112;53.592;10.184;2023-03-23T03:33:25;11.30;;;10.03;;
16015;SDS011;8112;53.592;10.184;2023-03-23T03:38:40;10.80;;;9.63;;
16015;SDS011;8112;53.592;10.184;2023-03-23T03:43:43;11.07;;;9.20;;
16015;SDS011;8112;53.592;10.184;2023-03-23T03:48:44;13.40;;;9.50;;
16015;SDS011;8112;53.592;10.184;2023-03-23T03:53:48;11.07;;;9.97;;
16015;SDS011;8112;53.592;10.184;2023-03-23T03:58:50;15.27;;;11.07;;
16015;SDS011;8112;53.592;10.184;2023-03-23T04:04:00;13.27;;;10.60;;
16015;SDS011;8112;53.592;10.184;2023-03-23T04:09:09;11.27;;;9.80;;
16015;SDS011;8112;53.592;10.184;2023-03-23T04:14:12;11.73;;;10.30;;
16015;SDS011;8112;53.592;10.184;2023-03-23T04:19:17;12.10;;;9.87;;
16015;SDS011;8112;53.592;10.184;2023-03-23T04:24:21;13.67;;;11.43;;
16015;SDS011;8112;53.592;10.184;2023-03-23T04:29:24;11.23;;;10.13;;
16015;SDS011;8112;53.592;10.184;2023-03-23T04:34:59;13.10;;;11.60;;
16015;SDS011;8112;53.592;10.184;2023-03-23T04:40:10;13.00;;;10.63;;
16015;SDS011;8112;53.592;10.184;2023-03-23T04:45:19;12.33;;;11.00;;
16015;SDS011;8112;53.592;10.184;2023-03-23T04:50:27;11.47;;;10.13;;
16015;SDS011;8112;53.592;10.184;2023-03-23T04:55:35;14.47;;;10.77;;
16015;SDS011;8112;53.592;10.184;2023-03-23T05:00:39;12.50;;;11.20;;
16015;SDS011;8112;53.592;10.184;2023-03-23T05:05:45;14.83;;;12.00;;
16015;SDS011;8112;53.592;10.184;2023-03-23T05:10:56;15.53;;;11.83;;
16015;SDS011;8112;53.592;10.184;2023-03-23T05:16:05;12.17;;;10.87;;
16015;SDS011;8112;53.592;10.184;2023-03-23T05:21:10;13.87;;;11.80;;
16015;SDS011;8112;53.592;10.184;2023-03-23T05:26:18;13.27;;;11.10;;
16015;SDS011;8112;53.592;10.184;2023-03-23T05:31:21;11.27;;;9.97;;
16015;SDS011;8112;53.592;10.184;2023-03-23T05:36:24;11.33;;;10.13;;
16015;SDS011;8112;53.592;10.184;2023-03-23T05:41:50;11.40;;;9.00;;
16015;SDS011;8112;53.592;10.184;2023-03-23T05:46:53;11.50;;;9.07;;
16015;SDS011;8112;53.592;10.184;2023-03-23T05:51:55;9.00;;;7.77;;
16015;SDS011;8112;53.592;10.184;2023-03-23T05:56:58;9.23;;;8.30;;
16015;SDS011;8112;53.592;10.184;2023-03-23T06:02:22;10.90;;;8.10;;
16015;SDS011;8112;53.592;10.184;2023-03-23T06:07:26;8.90;;;7.50;;
16015;SDS011;8112;53.592;10.184;2023-03-23T06:12:39;8.93;;;7.53;;
16015;SDS011;8112;53.592;10.184;2023-03-23T06:17:51;7.50;;;6.63;;
16015;SDS011;8112;53.592;10.184;2023-03-23T06:22:58;7.20;;;6.37;;
16015;SDS011;8112;53.592;10.184;2023-03-23T06:28:04;8.00;;;6.47;;
16015;SDS011;8112;53.592;10.184;2023-03-23T06:33:10;7.07;;;6.37;;
16015;SDS011;8112;53.592;10.184;2023-03-23T06:38:41;7.00;;;6.30;;
16015;SDS011;8112;53.592;10.184;2023-03-23T06:43:44;8.23;;;5.70;;
16015;SDS011;8112;53.592;10.184;2023-03-23T06:48:49;5.87;;;5.27;;
16015;SDS011;8112;53.592;10.184;2023-03-23T06:53:55;6.83;;;5.50;;
16015;SDS011;8112;53.592;10.184;2023-03-23T06:59:09;5.43;;;4.73;;
16015;SDS011;8112;53.592;10.184;2023-03-23T07:04:13;5.30;;;4.80;;
16015;SDS011;8112;53.592;10.184;2023-03-23T07:09:27;4.87;;;4.20;;
16015;SDS011;8112;53.592;10.184;2023-03-23T07:14:30;6.90;;;4.57;;
16015;SDS011;8112;53.592;10.184;2023-03-23T07:19:32;6.30;;;3.97;;
16015;SDS011;8112;53.592;10.184;2023-03-23T07:24:35;5.97;;;3.87;;
16015;SDS011;8112;53.592;10.184;2023-03-23T07:29:48;4.90;;;4.13;;
16015;SDS011;8112;53.592;10.184;2023-03-23T07:34:56;6.30;;;4.17;;
16015;SDS011;8112;53.592;10.184;2023-03-23T07:40:10;4.83;;;4.00;;
16015;SDS011;8112;53.592;10.184;2023-03-23T07:45:17;6.37;;;4.30;;
16015;SDS011;8112;53.592;10.184;2023-03-23T07:50:21;5.17;;;3.70;;
16015;SDS011;8112;53.592;10.184;2023-03-23T07:55:25;6.17;;;3.47;;
16015;SDS011;8112;53.592;10.184;2023-03-23T08:00:39;4.63;;;3.70;;
16015;SDS011;8112;53.592;10.184;2023-03-23T08:05:43;4.77;;;3.27;;
16015;SDS011;8112;53.592;10.184;2023-03-23T08:10:48;5.23;;;3.70;;
16015;SDS011;8112;53.592;10.184;2023-03-23T08:16:11;4.47;;;4.07;;
16015;SDS011;8112;53.592;10.184;2023-03-23T08:21:36;5.43;;;4.47;;
16015;SDS011;8112;53.592;10.184;2023-03-23T08:26:56;7.57;;;4.40;;
16015;SDS011;8112;53.592;10.184;2023-03-23T08:32:20;4.90;;;4.43;;
16015;SDS011;8112;53.592;10.184;2023-03-23T08:37:35;6.00;;;4.33;;
16015;SDS011;8112;53.592;10.184;2023-03-23T08:43:12;5.40;;;4.77;;
16015;SDS011;8112;53.592;10.184;2023-03-23T08:48:35;4.33;;;3.93;;
16015;SDS011;8112;53.592;10.184;2023-03-23T08:53:56;2.53;;;1.90;;
16015;SDS011;8112;53.592;10.184;2023-03-23T08:59:34;2.20;;;1.90;;
16015;SDS011;8112;53.592;10.184;2023-03-23T09:04:55;2.83;;;2.30;;
16015;SDS011;8112;53.592;10.184;2023-03-23T09:10:36;6.73;;;4.00;;
16015;SDS011;8112;53.592;10.184;2023-03-23T09:15:37;5.53;;;4.23;;
16015;SDS011;8112;53.592;10.184;2023-03-23T09:20:40;6.53;;;4.90;;
16015;SDS011;8112;53.592;10.184;2023-03-23T09:25:42;4.90;;;3.83;;
16015;SDS011;8112;53.592;10.184;2023-03-23T09:30:44;5.37;;;3.17;;
16015;SDS011;8112;53.592;10.184;2023-03-23T09:35:49;5.00;;;2.50;;
16015;SDS011;8112;53.592;10.184;2023-03-23T09:40:53;3.63;;;2.60;;
16015;SDS011;8112;53.592;10.184;2023-03-23T09:46:00;4.40;;;2.30;;
16015;SDS011;8112;53.592;10.184;2023-03-23T09:51:15;6.43;;;2.10;;
16015;SDS011;8112;53.592;10.184;2023-03-23T09:56:31;8.50;;;2.60;;
16015;SDS011;8112;53.592;10.184;2023-03-23T10:01:37;5.57;;;2.20;;
16015;SDS011;8112;53.592;10.184;2023-03-23T10:06:42;6.23;;;2.10;;
16015;SDS011;8112;53.592;10.184;2023-03-23T10:11:50;8.50;;;2.27;;
16015;SDS011;8112;53.592;10.184;2023-03-23T10:17:00;8.77;;;2.23;;
16015;SDS011;8112;53.592;10.184;2023-03-23T10:22:10;8.17;;;2.13;;
16015;SDS011;8112;53.592;10.184;2023-03-23T10:27:18;9.03;;;2.93;;
16015;SDS011;8112;53.592;10.184;2023-03-23T10:32:36;5.47;;;2.33;;
16015;SDS011;8112;53.592;10.184;2023-03-23T10:37:44;5.60;;;2.47;;
16015;SDS011;8112;53.592;10.184;2023-03-23T10:42:50;10.07;;;3.30;;
16015;SDS011;8112;53.592;10.184;2023-03-23T10:47:55;7.87;;;2.27;;
16015;SDS011;8112;53.592;10.184;2023-03-23T10:53:03;6.60;;;2.20;;
16015;SDS011;8112;53.592;10.184;2023-03-23T10:58:22;6.60;;;2.60;;
16015;SDS011;8112;53.592;10.184;2023-03-23T11:03:27;5.83;;;2.23;;
16015;SDS011;8112;53.592;10.184;2023-03-23T11:08:37;5.47;;;2.13;;
16015;SDS011;8112;53.592;10.184;2023-03-23T11:13:49;4.47;;;2.27;;
16015;SDS011;8112;53.592;10.184;2023-03-23T11:18:57;9.43;;;2.27;;
16015;SDS011;8112;53.592;10.184;2023-03-23T11:24:01;9.50;;;2.20;;
16015;SDS011;8112;53.592;10.184;2023-03-23T11:29:04;7.87;;;2.33;;
16015;SDS011;8112;53.592;10.184;2023-03-23T11:34:13;5.47;;;2.33;;
16015;SDS011;8112;53.592;10.184;2023-03-23T11:39:23;9.97;;;2.90;;
16015;SDS011;8112;53.592;10.184;2023-03-23T11:44:31;6.40;;;2.50;;
16015;SDS011;8112;53.592;10.184;2023-03-23T11:49:38;6.87;;;2.60;;
16015;SDS011;8112;53.592;10.184;2023-03-23T11:54:48;5.80;;;2.43;;
16015;SDS011;8112;53.592;10.184;2023-03-23T11:59:55;6.60;;;2.50;;
16015;SDS011;8112;53.592;10.184;2023-03-23T12:05:09;6.33;;;2.37;;
16015;SDS011;8112;53.592;10.184;2023-03-23T12:10:35;5.40;;;2.80;;
16015;SDS011;8112;53.592;10.184;2023-03-23T12:15:45;8.00;;;3.20;;
16015;SDS011;8112;53.592;10.184;2023-03-23T12:20:57;11.87;;;3.10;;
16015;SDS011;8112;53.592;10.184;2023-03-23T12:31:23;6.07;;;2.90;;
16015;SDS011;8112;53.592;10.184;2023-03-23T12:36:33;9.70;;;4.43;;
16015;SDS011;8112;53.592;10.184;2023-03-23T12:41:49;7.73;;;3.43;;
16015;SDS011;8112;53.592;10.184;2023-03-23T12:47:02;4.57;;;3.00;;
16015;SDS011;8112;53.592;10.184;2023-03-23T12:52:23;9.83;;;3.47;;
16015;SDS011;8112;53.592;10.184;2023-03-23T12:57:31;8.33;;;3.50;;
16015;SDS011;8112;53.592;10.184;2023-03-23T13:02:37;6.40;;;3.47;;
16015;SDS011;8112;53.592;10.184;2023-03-23T13:07:43;4.70;;;3.10;;
16015;SDS011;8112;53.592;10.184;2023-03-23T13:12:50;7.53;;;3.10;;
16015;SDS011;8112;53.592;10.184;2023-03-23T13:17:55;10.67;;;3.40;;
16015;SDS011;8112;53.592;10.184;2023-03-23T13:23:08;6.43;;;2.90;;
16015;SDS011;8112;53.592;10.184;2023-03-23T13:28:15;6.60;;;3.07;;
16015;SDS011;8112;53.592;10.184;2023-03-23T13:33:20;9.23;;;3.10;;
16015;SDS011;8112;53.592;10.184;2023-03-23T13:38:23;4.10;;;2.37;;
16015;SDS011;8112;53.592;10.184;2023-03-23T13:43:29;7.23;;;2.70;;
16015;SDS011;8112;53.592;10.184;2023-03-23T13:48:39;8.27;;;2.53;;
16015;SDS011;8112;53.592;10.184;2023-03-23T13:53:44;7.03;;;2.40;;
16015;SDS011;8112;53.592;10.184;2023-03-23T13:58:49;7.07;;;2.27;;
16015;SDS011;8112;53.592;10.184;2023-03-23T14:03:54;3.07;;;2.00;;
16015;SDS011;8112;53.592;10.184;2023-03-23T14:08:56;2.40;;;1.90;;
16015;SDS011;8112;53.592;10.184;2023-03-23T14:14:13;2.87;;;1.80;;
16015;SDS011;8112;53.592;10.184;2023-03-23T14:19:19;2.40;;;1.10;;
16015;SDS011;8112;53.592;10.184;2023-03-23T14:24:26;2.27;;;1.20;;
16015;SDS011;8112;53.592;10.184;2023-03-23T14:29:30;4.13;;;1.40;;
16015;SDS011;8112;53.592;10.184;2023-03-23T14:34:32;5.30;;;1.53;;
16015;SDS011;8112;53.592;10.184;2023-03-23T14:39:36;5.17;;;1.60;;
16015;SDS011;8112;53.592;10.184;2023-03-23T14:44:40;2.97;;;1.83;;
16015;SDS011;8112;53.592;10.184;2023-03-23T14:49:44;3.33;;;1.60;;
16015;SDS011;8112;53.592;10.184;2023-03-23T14:54:47;1.50;;;1.33;;
16015;SDS011;8112;53.592;10.184;2023-03-23T14:59:50;3.13;;;1.40;;
16015;SDS011;8112;53.592;10.184;2023-03-23T15:04:53;5.53;;;1.60;;
16015;SDS011;8112;53.592;10.184;2023-03-23T15:10:07;4.40;;;1.63;;
16015;SDS011;8112;53.592;10.184;2023-03-23T15:15:16;2.97;;;1.50;;
16015;SDS011;8112;53.592;10.184;2023-03-23T15:20:22;5.33;;;2.10;;
16015;SDS011;8112;53.592;10.184;2023-03-23T15:25:29;2.93;;;1.67;;
16015;SDS011;8112;53.592;10.184;2023-03-23T15:30:35;3.07;;;1.70;;
16015;SDS011;8112;53.592;10.184;2023-03-23T15:35:47;3.47;;;1.60;;
16015;SDS011;8112;53.592;10.184;2023-03-23T15:40:51;2.83;;;1.80;;
16015;SDS011;8112;53.592;10.184;2023-03-23T15:45:56;4.03;;;1.80;;
16015;SDS011;8112;53.592;10.184;2023-03-23T15:51:03;5.33;;;1.93;;
16015;SDS011;8112;53.592;10.184;2023-03-23T15:56:06;4.80;;;2.10;;
16015;SDS011;8112;53.592;10.184;2023-03-23T16:01:12;4.40;;;1.90;;
16015;SDS011;8112;53.592;10.184;2023-03-23T16:06:19;2.60;;;1.50;;
16015;SDS011;8112;53.592;10.184;2023-03-23T16:11:22;4.07;;;2.07;;
16015;SDS011;8112;53.592;10.184;2023-03-23T16:16:27;3.93;;;2.00;;
16015;SDS011;8112;53.592;10.184;2023-03-23T16:21:32;3.23;;;1.80;;
16015;SDS011;8112;53.592;10.184;2023-03-23T16:26:34;2.83;;;1.33;;
16015;SDS011;8112;53.592;10.184;2023-03-23T16:31:40;4.83;;;2.40;;
16015;SDS011;8112;53.592;10.184;2023-03-23T16:36:42;5.00;;;1.67;;
16015;SDS011;8112;53.592;10.184;2023-03-23T16:41:44;5.77;;;1.87;;
16015;SDS011;8112;53.592;10.184;2023-03-23T16:46:47;5.03;;;1.83;;
16015;SDS011;8112;53.592;10.184;2023-03-23T16:51:48;4.70;;;2.20;;
16015;SDS011;8112;53.592;10.184;2023-03-23T16:56:50;6.53;;;2.23;;
16015;SDS011;8112;53.592;10.184;2023-03-23T17:01:53;3.03;;;1.70;;
16015;SDS011;8112;53.592;10.184;2023-03-23T17:06:59;7.40;;;2.10;;
16015;SDS011;8112;53.592;10.184;2023-03-23T17:12:01;6.47;;;2.33;;
16015;SDS011;8112;53.592;10.184;2023-03-23T17:17:04;4.60;;;2.20;;
16015;SDS011;8112;53.592;10.184;2023-03-23T17:22:06;5.37;;;2.23;;
16015;SDS011;8112;53.592;10.184;2023-03-23T17:27:07;4.47;;;2.63;;
16015;SDS011;8112;53.592;10.184;2023-03-23T17:32:11;2.73;;;1.80;;
16015;SDS011;8112;53.592;10.184;2023-03-23T17:37:13;5.60;;;1.83;;
16015;SDS011;8112;53.592;10.184;2023-03-23T17:42:14;3.57;;;1.70;;
16015;SDS011;8112;53.592;10.184;2023-03-23T17:47:18;2.77;;;2.20;;
16015;SDS011;8112;53.592;10.184;2023-03-23T17:52:20;3.27;;;1.60;;
16015;SDS011;8112;53.592;10.184;2023-03-23T17:57:22;3.87;;;2.13;;
16015;SDS011;8112;53.592;10.184;2023-03-23T18:02:25;4.53;;;2.57;;
16015;SDS011;8112;53.592;10.184;2023-03-23T18:07:27;3.60;;;2.17;;
16015;SDS011;8112;53.592;10.184;2023-03-23T18:12:28;3.43;;;1.80;;
16015;SDS011;8112;53.592;10.184;2023-03-23T18:17:31;3.90;;;2.07;;
16015;SDS011;8112;53.592;10.184;2023-03-23T18:22:33;2.87;;;2.37;;
16015;SDS011;8112;53.592;10.184;2023-03-23T18:27:35;3.90;;;2.50;;
16015;SDS011;8112;53.592;10.184;2023-03-23T18:32:39;2.97;;;2.20;;
16015;SDS011;8112;53.592;10.184;2023-03-23T18:37:41;3.13;;;2.00;;
16015;SDS011;8112;53.592;10.184;2023-03-23T18:42:42;6.30;;;2.00;;
16015;SDS011;8112;53.592;10.184;2023-03-23T18:47:46;4.03;;;1.93;;
16015;SDS011;8112;53.592;10.184;2023-03-23T18:52:48;6.90;;;2.30;;
16015;SDS011;8112;53.592;10.184;2023-03-23T18:57:49;4.60;;;2.30;;
16015;SDS011;8112;53.592;10.184;2023-03-23T19:02:52;3.73;;;2.43;;
16015;SDS011;8112;53.592;10.184;2023-03-23T19:07:54;4.57;;;2.20;;
16015;SDS011;8112;53.592;10.184;2023-03-23T19:12:57;4.37;;;2.40;;
16015;SDS011;8112;53.592;10.184;2023-03-23T19:18:00;7.17;;;2.40;;
16015;SDS011;8112;53.592;10.184;2023-03-23T19:23:01;4.10;;;2.70;;
16015;SDS011;8112;53.592;10.184;2023-03-23T19:28:03;6.73;;;2.37;;
16015;SDS011;8112;53.592;10.184;2023-03-23T19:33:06;6.23;;;2.50;;
16015;SDS011;8112;53.592;10.184;2023-03-23T19:38:08;3.03;;;2.27;;
16015;SDS011;8112;53.592;10.184;2023-03-23T19:43:10;4.20;;;2.73;;
16015;SDS011;8112;53.592;10.184;2023-03-23T19:48:13;4.37;;;3.03;;
16015;SDS011;8112;53.592;10.184;2023-03-23T19:53:15;3.23;;;2.90;;
16015;SDS011;8112;53.592;10.184;2023-03-23T19:58:17;4.30;;;3.23;;
16015;SDS011;8112;53.592;10.184;2023-03-23T20:03:21;4.83;;;3.57;;
16015;SDS011;8112;53.592;10.184;2023-03-23T20:08:23;4.53;;;3.70;;
16015;SDS011;8112;53.592;10.184;2023-03-23T20:13:25;5.40;;;3.23;;
16015;SDS011;8112;53.592;10.184;2023-03-23T20:18:28;6.73;;;4.07;;
16015;SDS011;8112;53.592;10.184;2023-03-23T20:23:29;4.93;;;4.20;;
16015;SDS011;8112;53.592;10.184;2023-03-23T20:28:32;6.37;;;3.90;;
16015;SDS011;8112;53.592;10.184;2023-03-23T20:33:36;4.83;;;3.80;;
16015;SDS011;8112;53.592;10.184;2023-03-23T20:38:39;5.93;;;4.10;;
16015;SDS011;8112;53.592;10.184;2023-03-23T20:43:42;4.90;;;3.80;;
16015;SDS011;8112;53.592;10.184;2023-03-23T20:48:45;5.73;;;4.73;;
16015;SDS011;8112;53.592;10.184;2023-03-23T20:53:48;4.97;;;4.47;;
16015;SDS011;8112;53.592;10.184;2023-03-23T20:58:50;6.10;;;4.83;;
16015;SDS011;8112;53.592;10.184;2023-03-23T21:03:53;5.27;;;4.77;;
16015;SDS011;8112;53.592;10.184;2023-03-23T21:08:59;5.47;;;4.80;;
16015;SDS011;8112;53.592;10.184;2023-03-23T21:14:00;5.87;;;4.70;;
16015;SDS011;8112;53.592;10.184;2023-03-23T21:19:04;5.47;;;4.77;;
16015;SDS011;8112;53.592;10.184;2023-03-23T21:24:06;6.83;;;5.03;;
16015;SDS011;8112;53.592;10.184;2023-03-23T21:29:09;6.30;;;5.40;;
16015;SDS011;8112;53.592;10.184;2023-03-23T21:34:12;7.93;;;5.43;;
16015;SDS011;8112;53.592;10.184;2023-03-23T21:39:14;7.73;;;6.50;;
16015;SDS011;8112;53.592;10.184;2023-03-23T21:44:15;9.80;;;6.53;;
16015;SDS011;8112;53.592;10.184;2023-03-23T21:49:19;8.63;;;6.73;;
16015;SDS011;8112;53.592;10.184;2023-03-23T21:54:20;10.50;;;6.90;;
16015;SDS011;8112;53.592;10.184;2023-03-23T21:59:22;8.53;;;7.30;;
16015;SDS011;8112;53.592;10.184;2023-03-23T22:04:25;9.33;;;7.43;;
16015;SDS011;8112;53.592;10.184;2023-03-23T22:09:27;8.70;;;6.93;;
16015;SDS011;8112;53.592;10.184;2023-03-23T22:14:30;10.47;;;7.87;;
16015;SDS011;8112;53.592;10.184;2023-03-23T22:19:33;10.73;;;7.83;;
16015;SDS011;8112;53.592;10.184;2023-03-23T22:24:35;10.23;;;7.00;;
16015;SDS011;8112;53.592;10.184;2023-03-23T22:29:37;8.57;;;6.90;;
16015;SDS011;8112;53.592;10.184;2023-03-23T22:34:40;10.37;;;7.37;;
16015;SDS011;8112;53.592;10.184;2023-03-23T22:39:43;10.30;;;7.33;;
16015;SDS011;8112;53.592;10.184;2023-03-23T22:44:44;10.07;;;6.73;;
16015;SDS011;8112;53.592;10.184;2023-03-23T22:49:47;8.57;;;7.33;;
16015;SDS011;8112;53.592;10.184;2023-03-23T22:54:49;9.10;;;6.87;;
16015;SDS011;8112;53.592;10.184;2023-03-23T22:59:51;8.97;;;5.97;;
16015;SDS011;8112;53.592;10.184;2023-03-23T23:04:54;7.40;;;6.40;;
16015;SDS011;8112;53.592;10.184;2023-03-23T23:09:56;9.73;;;6.53;;
16015;SDS011;8112;53.592;10.184;2023-03-23T23:14:58;8.73;;;6.73;;
16015;SDS011;8112;53.592;10.184;2023-03-23T23:20:02;9.30;;;6.83;;
16015;SDS011;8112;53.592;10.184;2023-03-23T23:25:06;9.93;;;6.10;;
16015;SDS011;8112;53.592;10.184;2023-03-23T23:30:10;8.00;;;5.60;;
16015;SDS011;8112;53.592;10.184;2023-03-23T23:35:14;9.37;;;6.07;;
16015;SDS011;8112;53.592;10.184;2023-03-23T23:40:16;6.40;;;4.73;;
16015;SDS011;8112;53.592;10.184;2023-03-23T23:45:18;5.80;;;4.47;;
16015;SDS011;8112;53.592;10.184;2023-03-23T23:50:22;6.57;;;5.07;;
16015;SDS011;8112;53.592;10.184;2023-03-23T23:55:24;8.20;;;4.70;;
